sensor_id;sensor_type;location;lat;lon;timestamp;P1;durP1;ratioP1;P2;durP2;ratioP2
9076;SDS011;4574;51.072;17.174;2023-07-13T00:01:15;5.40;;;3.43;;
9076;SDS011;4574;51.072;17.174;2023-07-13T00:03:44;3.93;;;3.20;;
9076;SDS011;4574;51.072;17.174;2023-07-13T00:06:13;4.93;;;3.30;;
9076;SDS011;4574;51.072;17.174;2023-07-13T00:08:42;3.20;;;2.90;;
9076;SDS011;4574;51.072;17.174;2023-07-13T00:11:10;3.83;;;3.17;;
9076;SDS011;4574;51.072;17.174;2023-07-13T00:13:39;5.13;;;3.03;;
9076;SDS011;4574;51.072;17.174;2023-07-13T00:16:10;3.43;;;2.93;;
9076;SDS011;4574;51.072;17.174;2023-07-13T00:18:40;4.47;;;3.03;;
9076;SDS011;4574;51.072;17.174;2023-07-13T00:21:09;6.30;;;3.63;;
9076;SDS011;4574;51.072;17.174;2023-07-13T00:23:38;6.83;;;3.13;;
9076;SDS011;4574;51.072;17.174;2023-07-13T00:26:08;7.13;;;3.50;;
9076;SDS011;4574;51.072;17.174;2023-07-13T00:28:38;4.97;;;3.33;;
9076;SDS011;4574;51.072;17.174;2023-07-13T00:31:08;6.07;;;3.70;;
9076;SDS011;4574;51.072;17.174;2023-07-13T00:33:41;5.43;;;4.03;;
9076;SDS011;4574;51.072;17.174;2023-07-13T00:36:10;5.50;;;3.20;;
9076;SDS011;4574;51.072;17.174;2023-07-13T00:38:40;6.33;;;3.23;;
9076;SDS011;4574;51.072;17.174;2023-07-13T00:41:09;7.33;;;3.70;;
9076;SDS011;4574;51.072;17.174;2023-07-13T00:43:38;5.43;;;3.73;;
9076;SDS011;4574;51.072;17.174;2023-07-13T00:46:24;4.40;;;3.10;;
9076;SDS011;4574;51.072;17.174;2023-07-13T00:48:54;4.97;;;3.50;;
9076;SDS011;4574;51.072;17.174;2023-07-13T00:51:31;7.00;;;4.20;;
9076;SDS011;4574;51.072;17.174;2023-07-13T00:54:05;5.70;;;3.67;;
9076;SDS011;4574;51.072;17.174;2023-07-13T00:56:40;5.50;;;3.50;;
9076;SDS011;4574;51.072;17.174;2023-07-13T00:59:11;8.13;;;4.27;;
9076;SDS011;4574;51.072;17.174;2023-07-13T01:01:44;5.50;;;3.93;;
9076;SDS011;4574;51.072;17.174;2023-07-13T01:04:13;3.67;;;3.33;;
9076;SDS011;4574;51.072;17.174;2023-07-13T01:06:42;5.00;;;3.63;;
9076;SDS011;4574;51.072;17.174;2023-07-13T01:09:12;8.73;;;3.67;;
9076;SDS011;4574;51.072;17.174;2023-07-13T01:11:41;12.10;;;4.80;;
9076;SDS011;4574;51.072;17.174;2023-07-13T01:14:12;10.57;;;4.20;;
9076;SDS011;4574;51.072;17.174;2023-07-13T01:16:46;5.40;;;4.20;;
9076;SDS011;4574;51.072;17.174;2023-07-13T01:19:20;9.23;;;4.67;;
9076;SDS011;4574;51.072;17.174;2023-07-13T01:21:57;16.20;;;5.17;;
9076;SDS011;4574;51.072;17.174;2023-07-13T01:24:26;12.57;;;4.37;;
9076;SDS011;4574;51.072;17.174;2023-07-13T01:26:54;7.67;;;4.23;;
9076;SDS011;4574;51.072;17.174;2023-07-13T01:29:23;7.07;;;4.20;;
9076;SDS011;4574;51.072;17.174;2023-07-13T01:31:52;5.97;;;3.80;;
9076;SDS011;4574;51.072;17.174;2023-07-13T01:34:21;7.67;;;4.37;;
9076;SDS011;4574;51.072;17.174;2023-07-13T01:36:49;7.73;;;5.17;;
9076;SDS011;4574;51.072;17.174;2023-07-13T01:39:22;7.10;;;4.70;;
9076;SDS011;4574;51.072;17.174;2023-07-13T01:41:51;8.50;;;4.10;;
9076;SDS011;4574;51.072;17.174;2023-07-13T01:44:20;8.67;;;4.30;;
9076;SDS011;4574;51.072;17.174;2023-07-13T01:46:49;6.83;;;4.43;;
9076;SDS011;4574;51.072;17.174;2023-07-13T01:49:17;4.53;;;4.03;;
9076;SDS011;4574;51.072;17.174;2023-07-13T01:51:46;12.17;;;4.37;;
9076;SDS011;4574;51.072;17.174;2023-07-13T01:54:14;6.90;;;3.93;;
9076;SDS011;4574;51.072;17.174;2023-07-13T01:56:45;8.63;;;4.13;;
9076;SDS011;4574;51.072;17.174;2023-07-13T01:59:13;6.27;;;4.20;;
9076;SDS011;4574;51.072;17.174;2023-07-13T02:01:42;6.00;;;3.60;;
9076;SDS011;4574;51.072;17.174;2023-07-13T02:04:10;6.77;;;4.00;;
9076;SDS011;4574;51.072;17.174;2023-07-13T02:06:39;9.17;;;4.27;;
9076;SDS011;4574;51.072;17.174;2023-07-13T02:09:07;6.03;;;3.97;;
9076;SDS011;4574;51.072;17.174;2023-07-13T02:11:37;6.17;;;4.20;;
9076;SDS011;4574;51.072;17.174;2023-07-13T02:14:07;6.10;;;3.90;;
9076;SDS011;4574;51.072;17.174;2023-07-13T02:16:36;7.20;;;4.60;;
9076;SDS011;4574;51.072;17.174;2023-07-13T02:19:04;6.63;;;4.50;;
9076;SDS011;4574;51.072;17.174;2023-07-13T02:21:33;7.30;;;4.20;;
9076;SDS011;4574;51.072;17.174;2023-07-13T02:24:01;8.13;;;3.40;;
9076;SDS011;4574;51.072;17.174;2023-07-13T02:26:30;5.00;;;3.60;;
9076;SDS011;4574;51.072;17.174;2023-07-13T02:28:59;5.13;;;4.10;;
9076;SDS011;4574;51.072;17.174;2023-07-13T02:31:29;7.33;;;4.37;;
9076;SDS011;4574;51.072;17.174;2023-07-13T02:33:57;5.60;;;3.90;;
9076;SDS011;4574;51.072;17.174;2023-07-13T02:36:26;8.10;;;4.53;;
9076;SDS011;4574;51.072;17.174;2023-07-13T02:38:55;9.27;;;3.97;;
9076;SDS011;4574;51.072;17.174;2023-07-13T02:41:23;9.73;;;4.23;;
9076;SDS011;4574;51.072;17.174;2023-07-13T02:43:52;7.93;;;4.30;;
9076;SDS011;4574;51.072;17.174;2023-07-13T02:46:21;6.33;;;4.07;;
9076;SDS011;4574;51.072;17.174;2023-07-13T02:48:52;5.87;;;4.13;;
9076;SDS011;4574;51.072;17.174;2023-07-13T02:51:21;4.70;;;3.70;;
9076;SDS011;4574;51.072;17.174;2023-07-13T02:53:49;4.87;;;4.17;;
9076;SDS011;4574;51.072;17.174;2023-07-13T02:56:18;11.57;;;3.80;;
9076;SDS011;4574;51.072;17.174;2023-07-13T02:58:50;8.63;;;4.03;;
9076;SDS011;4574;51.072;17.174;2023-07-13T03:01:20;8.43;;;4.40;;
9076;SDS011;4574;51.072;17.174;2023-07-13T03:03:50;4.90;;;3.60;;
9076;SDS011;4574;51.072;17.174;2023-07-13T03:06:20;5.27;;;3.87;;
9076;SDS011;4574;51.072;17.174;2023-07-13T03:08:49;5.23;;;4.10;;
9076;SDS011;4574;51.072;17.174;2023-07-13T03:11:18;7.17;;;4.67;;
9076;SDS011;4574;51.072;17.174;2023-07-13T03:13:48;7.80;;;4.10;;
9076;SDS011;4574;51.072;17.174;2023-07-13T03:16:16;7.13;;;4.70;;
9076;SDS011;4574;51.072;17.174;2023-07-13T03:18:46;5.63;;;4.17;;
9076;SDS011;4574;51.072;17.174;2023-07-13T03:21:16;6.07;;;4.03;;
9076;SDS011;4574;51.072;17.174;2023-07-13T03:23:46;9.07;;;4.40;;
9076;SDS011;4574;51.072;17.174;2023-07-13T03:26:15;7.50;;;4.27;;
9076;SDS011;4574;51.072;17.174;2023-07-13T03:28:46;7.43;;;4.40;;
9076;SDS011;4574;51.072;17.174;2023-07-13T03:31:17;6.87;;;4.97;;
9076;SDS011;4574;51.072;17.174;2023-07-13T03:33:48;6.77;;;4.80;;
9076;SDS011;4574;51.072;17.174;2023-07-13T03:36:18;6.47;;;4.40;;
9076;SDS011;4574;51.072;17.174;2023-07-13T03:38:49;16.53;;;5.33;;
9076;SDS011;4574;51.072;17.174;2023-07-13T03:41:20;7.43;;;4.50;;
9076;SDS011;4574;51.072;17.174;2023-07-13T03:43:49;7.40;;;4.43;;
9076;SDS011;4574;51.072;17.174;2023-07-13T03:46:18;7.17;;;4.00;;
9076;SDS011;4574;51.072;17.174;2023-07-13T03:48:48;7.63;;;4.63;;
9076;SDS011;4574;51.072;17.174;2023-07-13T03:51:18;5.13;;;4.17;;
9076;SDS011;4574;51.072;17.174;2023-07-13T03:53:47;7.73;;;4.23;;
9076;SDS011;4574;51.072;17.174;2023-07-13T03:56:16;7.77;;;4.50;;
9076;SDS011;4574;51.072;17.174;2023-07-13T03:58:46;6.67;;;4.27;;
9076;SDS011;4574;51.072;17.174;2023-07-13T04:01:17;8.90;;;4.97;;
9076;SDS011;4574;51.072;17.174;2023-07-13T04:03:47;5.50;;;4.30;;
9076;SDS011;4574;51.072;17.174;2023-07-13T04:06:19;6.67;;;4.63;;
9076;SDS011;4574;51.072;17.174;2023-07-13T04:08:51;7.53;;;4.83;;
9076;SDS011;4574;51.072;17.174;2023-07-13T04:11:21;8.53;;;5.03;;
9076;SDS011;4574;51.072;17.174;2023-07-13T04:13:51;6.73;;;4.40;;
9076;SDS011;4574;51.072;17.174;2023-07-13T04:16:20;4.93;;;4.37;;
9076;SDS011;4574;51.072;17.174;2023-07-13T04:18:49;5.33;;;4.83;;
9076;SDS011;4574;51.072;17.174;2023-07-13T04:21:23;8.20;;;4.50;;
9076;SDS011;4574;51.072;17.174;2023-07-13T04:23:52;7.97;;;4.77;;
9076;SDS011;4574;51.072;17.174;2023-07-13T04:26:21;7.90;;;4.47;;
9076;SDS011;4574;51.072;17.174;2023-07-13T04:28:50;7.77;;;4.67;;
9076;SDS011;4574;51.072;17.174;2023-07-13T04:31:19;8.03;;;4.97;;
9076;SDS011;4574;51.072;17.174;2023-07-13T04:33:48;9.77;;;5.00;;
9076;SDS011;4574;51.072;17.174;2023-07-13T04:36:17;8.13;;;4.80;;
9076;SDS011;4574;51.072;17.174;2023-07-13T04:38:47;10.20;;;5.00;;
9076;SDS011;4574;51.072;17.174;2023-07-13T04:41:16;7.23;;;4.53;;
9076;SDS011;4574;51.072;17.174;2023-07-13T04:43:45;6.27;;;4.10;;
9076;SDS011;4574;51.072;17.174;2023-07-13T04:46:14;7.90;;;3.30;;
9076;SDS011;4574;51.072;17.174;2023-07-13T04:48:45;4.40;;;3.00;;
9076;SDS011;4574;51.072;17.174;2023-07-13T04:51:14;3.23;;;2.47;;
9076;SDS011;4574;51.072;17.174;2023-07-13T04:53:43;7.77;;;3.23;;
9076;SDS011;4574;51.072;17.174;2023-07-13T04:56:13;4.20;;;2.53;;
9076;SDS011;4574;51.072;17.174;2023-07-13T04:58:41;3.83;;;2.47;;
9076;SDS011;4574;51.072;17.174;2023-07-13T05:01:10;6.80;;;2.87;;
9076;SDS011;4574;51.072;17.174;2023-07-13T05:03:39;4.33;;;2.90;;
9076;SDS011;4574;51.072;17.174;2023-07-13T05:06:08;5.03;;;2.63;;
9076;SDS011;4574;51.072;17.174;2023-07-13T05:08:37;3.17;;;2.10;;
9076;SDS011;4574;51.072;17.174;2023-07-13T05:11:06;2.33;;;2.17;;
9076;SDS011;4574;51.072;17.174;2023-07-13T05:13:36;4.17;;;2.23;;
9076;SDS011;4574;51.072;17.174;2023-07-13T05:16:05;3.80;;;2.23;;
9076;SDS011;4574;51.072;17.174;2023-07-13T05:18:35;3.40;;;2.10;;
9076;SDS011;4574;51.072;17.174;2023-07-13T05:21:09;5.33;;;2.13;;
9076;SDS011;4574;51.072;17.174;2023-07-13T05:23:39;5.03;;;2.30;;
9076;SDS011;4574;51.072;17.174;2023-07-13T05:26:09;2.60;;;1.90;;
9076;SDS011;4574;51.072;17.174;2023-07-13T05:28:40;3.33;;;2.00;;
9076;SDS011;4574;51.072;17.174;2023-07-13T05:31:09;5.17;;;2.03;;
9076;SDS011;4574;51.072;17.174;2023-07-13T05:33:38;4.37;;;2.20;;
9076;SDS011;4574;51.072;17.174;2023-07-13T05:36:08;3.10;;;2.07;;
9076;SDS011;4574;51.072;17.174;2023-07-13T05:38:36;2.27;;;2.00;;
9076;SDS011;4574;51.072;17.174;2023-07-13T05:41:05;5.17;;;2.10;;
9076;SDS011;4574;51.072;17.174;2023-07-13T05:43:34;3.40;;;2.13;;
9076;SDS011;4574;51.072;17.174;2023-07-13T05:46:04;4.03;;;2.30;;
9076;SDS011;4574;51.072;17.174;2023-07-13T05:48:32;3.77;;;2.30;;
9076;SDS011;4574;51.072;17.174;2023-07-13T05:51:01;3.73;;;2.57;;
9076;SDS011;4574;51.072;17.174;2023-07-13T05:53:30;2.50;;;2.30;;
9076;SDS011;4574;51.072;17.174;2023-07-13T05:55:58;5.03;;;2.50;;
9076;SDS011;4574;51.072;17.174;2023-07-13T05:58:28;2.60;;;2.40;;
9076;SDS011;4574;51.072;17.174;2023-07-13T06:01:00;3.70;;;2.23;;
9076;SDS011;4574;51.072;17.174;2023-07-13T06:03:32;2.43;;;2.03;;
9076;SDS011;4574;51.072;17.174;2023-07-13T06:06:01;3.13;;;2.20;;
9076;SDS011;4574;51.072;17.174;2023-07-13T06:08:29;8.10;;;2.10;;
9076;SDS011;4574;51.072;17.174;2023-07-13T06:11:02;2.90;;;2.10;;
9076;SDS011;4574;51.072;17.174;2023-07-13T06:13:32;2.17;;;1.83;;
9076;SDS011;4574;51.072;17.174;2023-07-13T06:16:01;2.77;;;2.03;;
9076;SDS011;4574;51.072;17.174;2023-07-13T06:18:33;3.40;;;2.30;;
9076;SDS011;4574;51.072;17.174;2023-07-13T06:21:05;3.27;;;2.30;;
9076;SDS011;4574;51.072;17.174;2023-07-13T06:23:35;4.47;;;2.27;;
9076;SDS011;4574;51.072;17.174;2023-07-13T06:26:05;2.13;;;1.97;;
9076;SDS011;4574;51.072;17.174;2023-07-13T06:28:34;10.67;;;2.30;;
9076;SDS011;4574;51.072;17.174;2023-07-13T06:31:04;2.63;;;1.93;;
9076;SDS011;4574;51.072;17.174;2023-07-13T06:33:37;5.67;;;2.00;;
9076;SDS011;4574;51.072;17.174;2023-07-13T06:36:06;3.77;;;2.30;;
9076;SDS011;4574;51.072;17.174;2023-07-13T06:38:36;3.47;;;2.13;;
9076;SDS011;4574;51.072;17.174;2023-07-13T06:41:05;2.90;;;1.90;;
9076;SDS011;4574;51.072;17.174;2023-07-13T06:43:36;2.57;;;2.13;;
9076;SDS011;4574;51.072;17.174;2023-07-13T06:46:04;2.97;;;2.10;;
9076;SDS011;4574;51.072;17.174;2023-07-13T06:48:33;2.30;;;2.07;;
9076;SDS011;4574;51.072;17.174;2023-07-13T06:51:03;4.13;;;2.30;;
9076;SDS011;4574;51.072;17.174;2023-07-13T06:53:31;5.97;;;1.60;;
9076;SDS011;4574;51.072;17.174;2023-07-13T06:56:00;2.90;;;1.93;;
9076;SDS011;4574;51.072;17.174;2023-07-13T06:58:28;2.80;;;2.20;;
9076;SDS011;4574;51.072;17.174;2023-07-13T07:00:57;3.70;;;1.90;;
9076;SDS011;4574;51.072;17.174;2023-07-13T07:03:25;5.63;;;2.27;;
9076;SDS011;4574;51.072;17.174;2023-07-13T07:05:59;2.33;;;1.90;;
9076;SDS011;4574;51.072;17.174;2023-07-13T07:08:30;4.80;;;2.00;;
9076;SDS011;4574;51.072;17.174;2023-07-13T07:10:58;15.17;;;3.50;;
9076;SDS011;4574;51.072;17.174;2023-07-13T07:13:27;4.00;;;2.30;;
9076;SDS011;4574;51.072;17.174;2023-07-13T07:15:56;5.30;;;2.93;;
9076;SDS011;4574;51.072;17.174;2023-07-13T07:18:26;4.37;;;3.13;;
9076;SDS011;4574;51.072;17.174;2023-07-13T07:20:55;6.00;;;2.80;;
9076;SDS011;4574;51.072;17.174;2023-07-13T07:23:23;2.83;;;2.30;;
9076;SDS011;4574;51.072;17.174;2023-07-13T07:25:53;3.10;;;2.63;;
9076;SDS011;4574;51.072;17.174;2023-07-13T07:28:22;3.37;;;2.93;;
9076;SDS011;4574;51.072;17.174;2023-07-13T07:31:09;3.30;;;2.40;;
9076;SDS011;4574;51.072;17.174;2023-07-13T07:33:41;4.70;;;2.97;;
9076;SDS011;4574;51.072;17.174;2023-07-13T07:36:10;5.63;;;2.60;;
9076;SDS011;4574;51.072;17.174;2023-07-13T07:38:42;5.33;;;3.10;;
9076;SDS011;4574;51.072;17.174;2023-07-13T07:41:12;5.53;;;3.27;;
9076;SDS011;4574;51.072;17.174;2023-07-13T07:43:44;4.67;;;2.93;;
9076;SDS011;4574;51.072;17.174;2023-07-13T07:46:13;4.30;;;3.40;;
9076;SDS011;4574;51.072;17.174;2023-07-13T07:48:46;5.77;;;3.57;;
9076;SDS011;4574;51.072;17.174;2023-07-13T07:51:14;5.83;;;3.40;;
9076;SDS011;4574;51.072;17.174;2023-07-13T07:53:43;7.83;;;3.23;;
9076;SDS011;4574;51.072;17.174;2023-07-13T07:56:14;4.40;;;3.20;;
9076;SDS011;4574;51.072;17.174;2023-07-13T07:58:51;4.17;;;3.10;;
9076;SDS011;4574;51.072;17.174;2023-07-13T08:01:26;3.70;;;3.40;;
9076;SDS011;4574;51.072;17.174;2023-07-13T08:03:58;5.40;;;3.30;;
9076;SDS011;4574;51.072;17.174;2023-07-13T08:06:31;6.93;;;3.10;;
9076;SDS011;4574;51.072;17.174;2023-07-13T08:09:11;4.47;;;3.13;;
9076;SDS011;4574;51.072;17.174;2023-07-13T08:11:42;5.10;;;2.90;;
9076;SDS011;4574;51.072;17.174;2023-07-13T08:14:13;3.17;;;2.73;;
9076;SDS011;4574;51.072;17.174;2023-07-13T08:16:43;2.57;;;2.37;;
9076;SDS011;4574;51.072;17.174;2023-07-13T08:19:11;3.43;;;2.23;;
9076;SDS011;4574;51.072;17.174;2023-07-13T08:21:40;4.33;;;2.83;;
9076;SDS011;4574;51.072;17.174;2023-07-13T08:24:09;4.13;;;2.47;;
9076;SDS011;4574;51.072;17.174;2023-07-13T08:26:38;2.83;;;2.47;;
9076;SDS011;4574;51.072;17.174;2023-07-13T08:29:08;2.87;;;2.40;;
9076;SDS011;4574;51.072;17.174;2023-07-13T08:31:36;2.93;;;2.10;;
9076;SDS011;4574;51.072;17.174;2023-07-13T08:34:05;2.30;;;2.10;;
9076;SDS011;4574;51.072;17.174;2023-07-13T08:36:33;2.87;;;2.20;;
9076;SDS011;4574;51.072;17.174;2023-07-13T08:39:02;4.50;;;1.80;;
9076;SDS011;4574;51.072;17.174;2023-07-13T08:41:30;3.97;;;2.00;;
9076;SDS011;4574;51.072;17.174;2023-07-13T08:43:59;3.90;;;2.43;;
9076;SDS011;4574;51.072;17.174;2023-07-13T08:46:33;3.03;;;2.20;;
9076;SDS011;4574;51.072;17.174;2023-07-13T08:49:05;4.17;;;2.30;;
9076;SDS011;4574;51.072;17.174;2023-07-13T08:51:40;2.70;;;1.90;;
9076;SDS011;4574;51.072;17.174;2023-07-13T08:54:17;3.97;;;2.70;;
9076;SDS011;4574;51.072;17.174;2023-07-13T08:56:52;3.67;;;2.57;;
9076;SDS011;4574;51.072;17.174;2023-07-13T08:59:24;3.00;;;2.63;;
9076;SDS011;4574;51.072;17.174;2023-07-13T09:02:00;2.80;;;2.60;;
9076;SDS011;4574;51.072;17.174;2023-07-13T09:04:45;3.93;;;2.70;;
9076;SDS011;4574;51.072;17.174;2023-07-13T09:07:19;4.13;;;2.50;;
9076;SDS011;4574;51.072;17.174;2023-07-13T09:10:00;3.00;;;2.23;;
9076;SDS011;4574;51.072;17.174;2023-07-13T09:12:40;3.40;;;2.47;;
9076;SDS011;4574;51.072;17.174;2023-07-13T09:15:24;2.97;;;2.57;;
9076;SDS011;4574;51.072;17.174;2023-07-13T09:17:55;2.73;;;2.53;;
9076;SDS011;4574;51.072;17.174;2023-07-13T09:20:29;3.10;;;2.80;;
9076;SDS011;4574;51.072;17.174;2023-07-13T09:23:03;8.40;;;4.00;;
9076;SDS011;4574;51.072;17.174;2023-07-13T09:25:35;3.83;;;3.10;;
9076;SDS011;4574;51.072;17.174;2023-07-13T09:28:09;3.17;;;2.87;;
9076;SDS011;4574;51.072;17.174;2023-07-13T09:30:45;4.20;;;3.53;;
9076;SDS011;4574;51.072;17.174;2023-07-13T09:33:19;5.57;;;3.33;;
9076;SDS011;4574;51.072;17.174;2023-07-13T09:35:49;4.70;;;3.53;;
9076;SDS011;4574;51.072;17.174;2023-07-13T09:42:15;4.80;;;3.60;;
9076;SDS011;4574;51.072;17.174;2023-07-13T09:44:51;4.40;;;3.50;;
9076;SDS011;4574;51.072;17.174;2023-07-13T09:47:22;3.43;;;3.00;;
9076;SDS011;4574;51.072;17.174;2023-07-13T09:49:55;4.53;;;3.20;;
9076;SDS011;4574;51.072;17.174;2023-07-13T09:52:40;3.70;;;3.40;;
9076;SDS011;4574;51.072;17.174;2023-07-13T09:55:22;4.70;;;2.97;;
9076;SDS011;4574;51.072;17.174;2023-07-13T09:57:53;7.10;;;3.07;;
9076;SDS011;4574;51.072;17.174;2023-07-13T10:00:22;4.60;;;3.10;;
9076;SDS011;4574;51.072;17.174;2023-07-13T10:03:00;6.07;;;3.03;;
9076;SDS011;4574;51.072;17.174;2023-07-13T10:05:39;3.23;;;2.87;;
9076;SDS011;4574;51.072;17.174;2023-07-13T10:08:16;5.17;;;3.10;;
9076;SDS011;4574;51.072;17.174;2023-07-13T10:10:46;4.13;;;2.77;;
9076;SDS011;4574;51.072;17.174;2023-07-13T10:13:23;5.57;;;2.73;;
9076;SDS011;4574;51.072;17.174;2023-07-13T10:15:55;5.47;;;2.60;;
9076;SDS011;4574;51.072;17.174;2023-07-13T10:18:25;2.63;;;2.37;;
9076;SDS011;4574;51.072;17.174;2023-07-13T10:21:04;4.83;;;2.77;;
9076;SDS011;4574;51.072;17.174;2023-07-13T10:23:43;4.00;;;2.23;;
9076;SDS011;4574;51.072;17.174;2023-07-13T10:26:16;2.67;;;2.27;;
9076;SDS011;4574;51.072;17.174;2023-07-13T10:28:51;2.27;;;1.80;;
9076;SDS011;4574;51.072;17.174;2023-07-13T10:31:23;5.70;;;2.13;;
9076;SDS011;4574;51.072;17.174;2023-07-13T10:33:52;2.30;;;2.00;;
9076;SDS011;4574;51.072;17.174;2023-07-13T10:36:27;4.20;;;3.03;;
9076;SDS011;4574;51.072;17.174;2023-07-13T10:39:00;4.83;;;2.23;;
9076;SDS011;4574;51.072;17.174;2023-07-13T10:41:32;3.73;;;2.33;;
9076;SDS011;4574;51.072;17.174;2023-07-13T10:44:04;4.10;;;2.20;;
9076;SDS011;4574;51.072;17.174;2023-07-13T10:46:39;5.53;;;2.23;;
9076;SDS011;4574;51.072;17.174;2023-07-13T10:49:09;2.83;;;2.10;;
9076;SDS011;4574;51.072;17.174;2023-07-13T10:51:41;4.03;;;2.80;;
9076;SDS011;4574;51.072;17.174;2023-07-13T10:54:10;2.23;;;2.03;;
9076;SDS011;4574;51.072;17.174;2023-07-13T10:56:49;4.07;;;2.53;;
9076;SDS011;4574;51.072;17.174;2023-07-13T10:59:24;4.40;;;2.60;;
9076;SDS011;4574;51.072;17.174;2023-07-13T11:01:55;4.30;;;2.10;;
9076;SDS011;4574;51.072;17.174;2023-07-13T11:04:26;3.20;;;1.90;;
9076;SDS011;4574;51.072;17.174;2023-07-13T11:06:59;2.10;;;1.90;;
9076;SDS011;4574;51.072;17.174;2023-07-13T11:09:40;1.80;;;1.60;;
9076;SDS011;4574;51.072;17.174;2023-07-13T11:18:19;2.53;;;1.90;;
9076;SDS011;4574;51.072;17.174;2023-07-13T11:20:50;3.50;;;1.80;;
9076;SDS011;4574;51.072;17.174;2023-07-13T11:23:26;2.67;;;2.00;;
9076;SDS011;4574;51.072;17.174;2023-07-13T11:25:58;2.43;;;1.77;;
9076;SDS011;4574;51.072;17.174;2023-07-13T11:28:30;3.37;;;2.00;;
9076;SDS011;4574;51.072;17.174;2023-07-13T11:31:11;3.37;;;1.63;;
9076;SDS011;4574;51.072;17.174;2023-07-13T11:33:50;3.07;;;1.83;;
9076;SDS011;4574;51.072;17.174;2023-07-13T11:36:28;1.67;;;1.40;;
9076;SDS011;4574;51.072;17.174;2023-07-13T11:39:02;3.00;;;1.40;;
9076;SDS011;4574;51.072;17.174;2023-07-13T11:41:34;1.83;;;1.33;;
9076;SDS011;4574;51.072;17.174;2023-07-13T11:44:06;1.77;;;1.67;;
9076;SDS011;4574;51.072;17.174;2023-07-13T11:46:43;1.53;;;1.43;;
9076;SDS011;4574;51.072;17.174;2023-07-13T11:49:15;2.13;;;1.60;;
9076;SDS011;4574;51.072;17.174;2023-07-13T11:51:44;1.97;;;1.50;;
9076;SDS011;4574;51.072;17.174;2023-07-13T11:54:21;1.70;;;1.47;;
9076;SDS011;4574;51.072;17.174;2023-07-13T11:56:53;1.50;;;1.40;;
9076;SDS011;4574;51.072;17.174;2023-07-13T11:59:24;1.70;;;1.60;;
9076;SDS011;4574;51.072;17.174;2023-07-13T12:01:53;1.87;;;1.67;;
9076;SDS011;4574;51.072;17.174;2023-07-13T12:04:23;2.30;;;1.40;;
9076;SDS011;4574;51.072;17.174;2023-07-13T12:06:56;5.57;;;1.70;;
9076;SDS011;4574;51.072;17.174;2023-07-13T12:09:28;2.53;;;1.50;;
9076;SDS011;4574;51.072;17.174;2023-07-13T12:11:57;2.80;;;2.60;;
9076;SDS011;4574;51.072;17.174;2023-07-13T12:14:27;1.70;;;1.23;;
9076;SDS011;4574;51.072;17.174;2023-07-13T12:16:56;1.93;;;1.40;;
9076;SDS011;4574;51.072;17.174;2023-07-13T12:19:25;2.90;;;1.40;;
9076;SDS011;4574;51.072;17.174;2023-07-13T12:21:56;3.20;;;1.50;;
9076;SDS011;4574;51.072;17.174;2023-07-13T12:24:28;2.53;;;1.40;;
9076;SDS011;4574;51.072;17.174;2023-07-13T12:26:59;1.50;;;1.40;;
9076;SDS011;4574;51.072;17.174;2023-07-13T12:29:29;1.70;;;1.60;;
9076;SDS011;4574;51.072;17.174;2023-07-13T12:31:59;2.27;;;1.43;;
9076;SDS011;4574;51.072;17.174;2023-07-13T12:34:28;2.10;;;1.60;;
9076;SDS011;4574;51.072;17.174;2023-07-13T12:36:58;2.53;;;1.60;;
9076;SDS011;4574;51.072;17.174;2023-07-13T12:39:32;2.53;;;1.50;;
9076;SDS011;4574;51.072;17.174;2023-07-13T12:42:18;1.57;;;1.30;;
9076;SDS011;4574;51.072;17.174;2023-07-13T12:44:52;2.00;;;1.53;;
9076;SDS011;4574;51.072;17.174;2023-07-13T12:47:22;2.43;;;1.40;;
9076;SDS011;4574;51.072;17.174;2023-07-13T12:49:54;1.83;;;1.50;;
9076;SDS011;4574;51.072;17.174;2023-07-13T12:52:28;2.33;;;1.67;;
9076;SDS011;4574;51.072;17.174;2023-07-13T12:55:05;2.87;;;1.33;;
9076;SDS011;4574;51.072;17.174;2023-07-13T12:57:41;2.87;;;1.50;;
9076;SDS011;4574;51.072;17.174;2023-07-13T13:00:24;2.20;;;1.60;;
9076;SDS011;4574;51.072;17.174;2023-07-13T13:02:56;2.17;;;1.40;;
9076;SDS011;4574;51.072;17.174;2023-07-13T13:05:47;5.30;;;1.50;;
9076;SDS011;4574;51.072;17.174;2023-07-13T13:08:16;2.90;;;1.63;;
9076;SDS011;4574;51.072;17.174;2023-07-13T13:10:46;2.63;;;1.43;;
9076;SDS011;4574;51.072;17.174;2023-07-13T13:13:15;1.30;;;1.20;;
9076;SDS011;4574;51.072;17.174;2023-07-13T13:15:43;1.57;;;1.20;;
9076;SDS011;4574;51.072;17.174;2023-07-13T13:18:16;1.30;;;1.10;;
9076;SDS011;4574;51.072;17.174;2023-07-13T13:20:45;2.00;;;1.40;;
9076;SDS011;4574;51.072;17.174;2023-07-13T13:23:14;1.80;;;1.30;;
9076;SDS011;4574;51.072;17.174;2023-07-13T13:25:47;1.80;;;1.10;;
9076;SDS011;4574;51.072;17.174;2023-07-13T13:28:19;1.87;;;1.20;;
9076;SDS011;4574;51.072;17.174;2023-07-13T13:30:49;1.57;;;1.10;;
9076;SDS011;4574;51.072;17.174;2023-07-13T13:33:20;1.93;;;1.00;;
9076;SDS011;4574;51.072;17.174;2023-07-13T13:35:50;4.03;;;1.10;;
9076;SDS011;4574;51.072;17.174;2023-07-13T13:38:19;1.63;;;1.10;;
9076;SDS011;4574;51.072;17.174;2023-07-13T13:40:53;2.63;;;1.10;;
9076;SDS011;4574;51.072;17.174;2023-07-13T13:43:23;2.27;;;1.10;;
9076;SDS011;4574;51.072;17.174;2023-07-13T13:45:55;1.90;;;1.00;;
9076;SDS011;4574;51.072;17.174;2023-07-13T13:48:26;1.90;;;1.10;;
9076;SDS011;4574;51.072;17.174;2023-07-13T13:50:59;2.00;;;1.27;;
9076;SDS011;4574;51.072;17.174;2023-07-13T13:53:28;2.00;;;1.10;;
9076;SDS011;4574;51.072;17.174;2023-07-13T13:55:58;1.60;;;1.00;;
9076;SDS011;4574;51.072;17.174;2023-07-13T13:58:27;1.73;;;1.23;;
9076;SDS011;4574;51.072;17.174;2023-07-13T14:00:57;1.07;;;1.00;;
9076;SDS011;4574;51.072;17.174;2023-07-13T14:03:26;1.60;;;1.03;;
9076;SDS011;4574;51.072;17.174;2023-07-13T14:05:55;4.17;;;1.23;;
9076;SDS011;4574;51.072;17.174;2023-07-13T14:08:24;2.73;;;1.40;;
9076;SDS011;4574;51.072;17.174;2023-07-13T14:10:53;3.83;;;1.00;;
9076;SDS011;4574;51.072;17.174;2023-07-13T14:13:27;1.80;;;1.10;;
9076;SDS011;4574;51.072;17.174;2023-07-13T14:16:01;1.50;;;1.20;;
9076;SDS011;4574;51.072;17.174;2023-07-13T14:18:30;5.53;;;1.30;;
9076;SDS011;4574;51.072;17.174;2023-07-13T14:20:58;1.17;;;1.03;;
9076;SDS011;4574;51.072;17.174;2023-07-13T14:23:27;2.13;;;1.20;;
9076;SDS011;4574;51.072;17.174;2023-07-13T14:25:55;1.43;;;1.30;;
9076;SDS011;4574;51.072;17.174;2023-07-13T14:28:24;1.93;;;1.33;;
9076;SDS011;4574;51.072;17.174;2023-07-13T14:30:55;2.00;;;1.27;;
9076;SDS011;4574;51.072;17.174;2023-07-13T14:33:24;2.83;;;1.40;;
9076;SDS011;4574;51.072;17.174;2023-07-13T14:35:52;4.67;;;1.30;;
9076;SDS011;4574;51.072;17.174;2023-07-13T14:38:21;2.87;;;1.77;;
9076;SDS011;4574;51.072;17.174;2023-07-13T14:40:50;4.17;;;1.37;;
9076;SDS011;4574;51.072;17.174;2023-07-13T14:43:18;4.10;;;1.30;;
9076;SDS011;4574;51.072;17.174;2023-07-13T14:45:49;1.93;;;1.30;;
9076;SDS011;4574;51.072;17.174;2023-07-13T14:48:20;2.30;;;1.30;;
9076;SDS011;4574;51.072;17.174;2023-07-13T14:50:50;2.10;;;1.23;;
9076;SDS011;4574;51.072;17.174;2023-07-13T14:53:22;1.30;;;1.20;;
9076;SDS011;4574;51.072;17.174;2023-07-13T14:55:53;1.77;;;0.90;;
9076;SDS011;4574;51.072;17.174;2023-07-13T14:58:22;1.80;;;1.40;;
9076;SDS011;4574;51.072;17.174;2023-07-13T15:00:55;1.40;;;1.10;;
9076;SDS011;4574;51.072;17.174;2023-07-13T15:03:28;1.93;;;1.40;;
9076;SDS011;4574;51.072;17.174;2023-07-13T15:05:57;1.70;;;1.13;;
9076;SDS011;4574;51.072;17.174;2023-07-13T15:08:25;2.47;;;1.40;;
9076;SDS011;4574;51.072;17.174;2023-07-13T15:10:54;3.00;;;1.30;;
9076;SDS011;4574;51.072;17.174;2023-07-13T15:13:26;2.23;;;1.23;;
9076;SDS011;4574;51.072;17.174;2023-07-13T15:15:57;2.10;;;1.20;;
9076;SDS011;4574;51.072;17.174;2023-07-13T15:18:25;2.00;;;1.23;;
9076;SDS011;4574;51.072;17.174;2023-07-13T15:20:55;2.97;;;1.13;;
9076;SDS011;4574;51.072;17.174;2023-07-13T15:23:27;2.90;;;1.20;;
9076;SDS011;4574;51.072;17.174;2023-07-13T15:25:55;1.30;;;0.93;;
9076;SDS011;4574;51.072;17.174;2023-07-13T15:28:24;1.87;;;1.20;;
9076;SDS011;4574;51.072;17.174;2023-07-13T15:30:52;2.87;;;1.30;;
9076;SDS011;4574;51.072;17.174;2023-07-13T15:33:23;3.87;;;1.30;;